Time;durP1;ratioP1;P1;durP2;ratioP2;P2;SDS_P1;SDS_P2;PMS_P1;PMS_P2;Temp;Humidity;BMP_temperature;BMP_pressure;BME280_temperature;BME280_humidity;BME280_pressure;Samples;Min_cycle;Max_cycle;Signal;HPM_P1;HPM_P2
2023/04/09 00:00:23;;;;;;;10.32;7.93;;;6.60;76.30;;;;;;5072650;28;20035;-75
2023/04/09 00:02:49;;;;;;;12.20;8.65;;;6.60;76.20;;;;;;5072660;28;20111;-74
2023/04/09 00:05:14;;;;;;;9.30;7.70;;;6.60;76.00;;;;;;5072310;28;20096;-74
2023/04/09 00:07:40;;;;;;;9.93;8.60;;;6.60;75.80;;;;;;5072601;28;20070;-74
2023/04/09 00:10:06;;;;;;;13.70;8.75;;;6.50;75.60;;;;;;5071175;28;20028;-75
2023/04/09 00:12:32;;;;;;;12.82;9.38;;;6.50;75.60;;;;;;5072457;28;20423;-75
2023/04/09 00:14:57;;;;;;;14.25;8.95;;;6.40;75.50;;;;;;5072327;28;20033;-79
2023/04/09 00:17:23;;;;;;;12.13;8.77;;;6.20;75.90;;;;;;5072466;28;20029;-75
2023/04/09 00:19:48;;;;;;;12.60;9.13;;;6.20;76.00;;;;;;5072214;28;20107;-75
2023/04/09 00:22:15;;;;;;;12.77;9.68;;;6.20;76.10;;;;;;5072775;28;20031;-75
2023/04/09 00:24:40;;;;;;;15.65;11.23;;;6.10;76.10;;;;;;5076207;28;20025;-75
2023/04/09 00:27:06;;;;;;;13.13;10.00;;;6.20;75.90;;;;;;5074910;28;20384;-75
2023/04/09 00:29:31;;;;;;;10.65;8.27;;;6.00;75.90;;;;;;5076172;28;20036;-75
2023/04/09 00:31:57;;;;;;;12.63;9.70;;;6.00;76.00;;;;;;5076061;28;20020;-76
2023/04/09 00:34:22;;;;;;;13.32;9.20;;;6.00;76.10;;;;;;5075942;28;20029;-75
2023/04/09 00:36:48;;;;;;;12.65;9.43;;;6.00;76.20;;;;;;5075937;28;20044;-75
2023/04/09 00:39:13;;;;;;;11.02;9.15;;;6.00;76.30;;;;;;5074393;28;20027;-75
2023/04/09 00:41:39;;;;;;;12.73;9.70;;;6.00;76.30;;;;;;5075937;28;20021;-75
2023/04/09 00:44:04;;;;;;;12.65;10.13;;;6.10;76.20;;;;;;5075579;28;20435;-76
2023/04/09 00:46:30;;;;;;;13.85;10.43;;;6.10;76.10;;;;;;5075813;28;20070;-75
2023/04/09 00:48:56;;;;;;;12.32;9.80;;;6.10;76.00;;;;;;5075839;28;20114;-75
2023/04/09 00:51:22;;;;;;;12.65;10.18;;;6.10;76.00;;;;;;5075809;28;20063;-75
2023/04/09 00:53:47;;;;;;;13.43;10.77;;;6.20;75.80;;;;;;5075662;28;20408;-75
2023/04/09 00:56:15;;;;;;;15.00;11.40;;;6.20;75.70;;;;;;5075427;28;20075;-75
2023/04/09 00:58:41;;;;;;;14.27;10.77;;;6.10;75.70;;;;;;5075373;28;20012;-75
2023/04/09 01:01:06;;;;;;;14.00;11.00;;;6.10;75.80;;;;;;5074234;28;20162;-75
2023/04/09 01:03:32;;;;;;;14.95;12.02;;;6.00;75.60;;;;;;5075361;28;20066;-75
2023/04/09 01:06:13;;;;;;;15.60;12.35;;;5.90;75.80;;;;;;5075502;28;20082;-75
2023/04/09 01:08:50;;;;;;;16.40;11.93;;;5.90;76.20;;;;;;5075392;28;20017;-75
2023/04/09 01:11:23;;;;;;;15.88;12.48;;;5.80;76.40;;;;;;5077587;28;20036;-75
2023/04/09 01:14:00;;;;;;;15.85;12.07;;;5.70;76.80;;;;;;5075241;28;20021;-75
2023/04/09 01:16:28;;;;;;;16.15;12.55;;;5.70;76.90;;;;;;5075309;28;20028;-75
2023/04/09 01:19:08;;;;;;;15.80;11.82;;;5.70;77.10;;;;;;5075147;28;20471;-76
2023/04/09 01:21:34;;;;;;;14.98;11.93;;;5.80;77.30;;;;;;5075157;28;20031;-75
2023/04/09 01:24:34;;;;;;;16.33;11.77;;;5.80;77.20;;;;;;5074949;28;20020;-74
2023/04/09 01:27:05;;;;;;;15.13;11.73;;;5.90;77.10;;;;;;5074887;28;20025;-75
2023/04/09 01:29:40;;;;;;;14.75;11.98;;;5.90;77.00;;;;;;5075058;28;20025;-75
2023/04/09 01:32:07;;;;;;;15.18;11.85;;;5.90;76.90;;;;;;5074980;28;20024;-75
2023/04/09 01:34:34;;;;;;;14.60;11.88;;;5.90;76.80;;;;;;5073715;28;20071;-75
2023/04/09 01:37:02;;;;;;;17.80;13.23;;;5.90;76.60;;;;;;5074918;28;20062;-74
2023/04/09 01:39:28;;;;;;;18.98;15.15;;;6.00;76.50;;;;;;5074935;28;20027;-75
2023/04/09 01:41:57;;;;;;;17.60;14.25;;;6.00;76.30;;;;;;5074637;28;20195;-75
2023/04/09 01:44:25;;;;;;;18.80;13.20;;;6.10;76.10;;;;;;5074508;28;20512;-75
2023/04/09 01:46:51;;;;;;;16.98;11.63;;;6.10;75.90;;;;;;5074564;28;20066;-77
2023/04/09 01:49:17;;;;;;;14.60;10.98;;;6.10;75.80;;;;;;5074456;28;20028;-75
2023/04/09 01:51:43;;;;;;;11.93;9.90;;;6.10;75.90;;;;;;5074395;28;20021;-75
2023/04/09 01:54:09;;;;;;;13.25;11.02;;;6.10;75.80;;;;;;5074513;28;20020;-74
2023/04/09 01:56:46;;;;;;;14.90;11.52;;;6.10;75.80;;;;;;5074383;28;20052;-75
2023/04/09 01:59:13;;;;;;;16.88;11.73;;;6.10;75.80;;;;;;5075346;28;20112;-75
2023/04/09 02:01:45;;;;;;;20.33;14.30;;;6.10;75.70;;;;;;5073610;28;20050;-75
2023/04/09 02:04:23;;;;;;;19.00;14.20;;;6.10;75.70;;;;;;5074277;28;20048;-76
2023/04/09 02:06:58;;;;;;;17.70;13.38;;;6.10;75.70;;;;;;5074437;28;20070;-76
2023/04/09 02:09:28;;;;;;;17.60;12.38;;;6.20;75.70;;;;;;5074474;28;20020;-78
2023/04/09 02:11:56;;;;;;;15.57;12.13;;;6.20;75.60;;;;;;5073143;28;20036;-78
2023/04/09 02:14:25;;;;;;;12.43;10.27;;;6.10;75.60;;;;;;5081510;28;20105;-78
2023/04/09 02:16:51;;;;;;;14.65;11.02;;;6.10;75.60;;;;;;5078620;28;20086;-77
2023/04/09 02:19:16;;;;;;;14.57;11.30;;;6.10;75.80;;;;;;5074188;28;20024;-78
2023/04/09 02:21:43;;;;;;;15.05;11.38;;;6.00;75.90;;;;;;5074209;28;20380;-75
2023/04/09 02:24:08;;;;;;;20.60;15.57;;;6.00;76.10;;;;;;5073934;28;20099;-74
2023/04/09 02:26:34;;;;;;;23.80;18.10;;;6.00;76.40;;;;;;5074407;28;20433;-78
2023/04/09 02:29:00;;;;;;;25.45;19.63;;;5.90;76.50;;;;;;5072606;28;20111;-79
2023/04/09 02:31:25;;;;;;;27.60;21.48;;;5.90;76.70;;;;;;5073819;28;20025;-79
2023/04/09 02:33:52;;;;;;;32.50;23.73;;;5.90;77.00;;;;;;5074143;28;20067;-78
2023/04/09 02:36:18;;;;;;;30.80;23.00;;;5.90;77.40;;;;;;5073749;28;20032;-78
2023/04/09 02:38:44;;;;;;;32.70;24.17;;;5.90;77.40;;;;;;5073876;28;20377;-78
2023/04/09 02:41:09;;;;;;;29.08;22.88;;;5.90;77.40;;;;;;5073636;28;20388;-77
2023/04/09 02:43:35;;;;;;;32.20;24.60;;;5.80;77.10;;;;;;5073586;28;20025;-74
2023/04/09 02:46:01;;;;;;;29.42;23.23;;;5.80;77.10;;;;;;5071796;28;20186;-75
2023/04/09 02:48:26;;;;;;;31.15;24.10;;;5.80;77.10;;;;;;5073243;28;20051;-75
2023/04/09 02:50:52;;;;;;;30.17;22.95;;;5.80;77.20;;;;;;5073418;28;20024;-75
2023/04/09 02:53:20;;;;;;;31.10;24.00;;;5.80;76.90;;;;;;5073323;28;20023;-75
2023/04/09 02:55:46;;;;;;;32.60;23.67;;;5.80;76.90;;;;;;5073228;28;20085;-75
2023/04/09 02:58:11;;;;;;;31.75;23.05;;;5.80;77.00;;;;;;5071984;28;20017;-78
2023/04/09 03:00:37;;;;;;;30.63;23.45;;;5.80;76.90;;;;;;5072904;28;20038;-75
2023/04/09 03:03:02;;;;;;;32.13;23.20;;;5.70;77.10;;;;;;5073251;28;20369;-77
2023/04/09 03:05:28;;;;;;;31.38;23.65;;;5.80;77.10;;;;;;5072989;28;20020;-77
2023/04/09 03:07:53;;;;;;;32.95;23.35;;;5.70;77.20;;;;;;5073229;28;20050;-77
2023/04/09 03:10:19;;;;;;;27.65;21.63;;;5.70;77.20;;;;;;5073198;28;20020;-77
2023/04/09 03:12:46;;;;;;;30.17;23.02;;;5.70;77.30;;;;;;5073101;28;20499;-76
2023/04/09 03:15:12;;;;;;;32.80;23.63;;;5.60;76.50;;;;;;5073009;28;20048;-77
2023/04/09 03:17:38;;;;;;;35.10;24.02;;;5.60;76.80;;;;;;5073073;28;20503;-78
2023/04/09 03:20:05;;;;;;;31.02;23.33;;;5.60;76.90;;;;;;5071758;28;20111;-76
2023/04/09 03:22:36;;;;;;;31.85;23.50;;;5.60;76.60;;;;;;5072966;28;20029;-75
2023/04/09 03:25:02;;;;;;;33.15;23.55;;;5.50;76.70;;;;;;5072973;28;20154;-76
2023/04/09 03:27:28;;;;;;;32.60;21.35;;;5.50;76.50;;;;;;5072985;28;20077;-75
2023/04/09 03:29:57;;;;;;;30.88;23.20;;;5.60;76.50;;;;;;5073011;28;20447;-75
2023/04/09 03:32:22;;;;;;;28.50;21.90;;;5.50;76.60;;;;;;5071700;28;20113;-76
2023/04/09 03:34:48;;;;;;;30.05;22.65;;;5.60;76.60;;;;;;5072980;28;20075;-76
2023/04/09 03:37:13;;;;;;;28.73;21.80;;;5.60;76.00;;;;;;5072844;28;20029;-75
2023/04/09 03:39:39;;;;;;;28.92;21.30;;;5.50;76.00;;;;;;5072667;28;20023;-76
2023/04/09 03:42:05;;;;;;;30.02;22.08;;;5.50;76.00;;;;;;5072958;28;20403;-75
2023/04/09 03:44:30;;;;;;;30.60;22.48;;;5.50;76.10;;;;;;5072692;28;20041;-75
2023/04/09 03:46:56;;;;;;;27.58;20.88;;;5.50;76.10;;;;;;5072675;28;20128;-75
2023/04/09 03:49:21;;;;;;;31.02;22.58;;;5.40;76.30;;;;;;5072750;28;20078;-75
2023/04/09 03:51:47;;;;;;;27.15;20.48;;;5.50;76.40;;;;;;5072809;28;20044;-76
2023/04/09 03:54:12;;;;;;;27.27;19.48;;;5.40;76.10;;;;;;5072742;28;20032;-75
2023/04/09 03:56:38;;;;;;;28.80;20.92;;;5.50;76.20;;;;;;5072766;28;20040;-76
2023/04/09 03:59:04;;;;;;;31.77;22.83;;;5.40;76.10;;;;;;5075817;28;20395;-76
2023/04/09 04:01:29;;;;;;;31.92;22.65;;;5.40;75.90;;;;;;5076532;28;20031;-75
2023/04/09 04:03:55;;;;;;;27.55;20.77;;;5.20;76.10;;;;;;5076656;28;20059;-75
2023/04/09 04:06:20;;;;;;;28.85;22.27;;;5.10;76.60;;;;;;5076570;28;20063;-76
2023/04/09 04:08:46;;;;;;;27.38;21.23;;;5.10;76.90;;;;;;5075194;28;20024;-75
2023/04/09 04:11:12;;;;;;;27.70;20.38;;;5.00;76.90;;;;;;5076389;28;20028;-75
2023/04/09 04:13:37;;;;;;;29.65;21.00;;;5.00;77.10;;;;;;5076399;28;20129;-75
2023/04/09 04:16:06;;;;;;;29.23;21.38;;;5.10;77.10;;;;;;5076159;28;20029;-75
2023/04/09 04:18:32;;;;;;;33.35;24.60;;;5.10;76.80;;;;;;5078325;28;20031;-75
2023/04/09 04:20:57;;;;;;;30.80;22.45;;;5.10;77.40;;;;;;5076135;28;20025;-75
2023/04/09 04:23:23;;;;;;;33.88;25.00;;;4.90;76.40;;;;;;5076132;28;20052;-75
2023/04/09 04:25:49;;;;;;;30.60;23.63;;;4.90;76.50;;;;;;5076076;28;20222;-75
2023/04/09 04:28:15;;;;;;;27.83;20.88;;;4.80;76.60;;;;;;5076431;28;20055;-75
2023/04/09 04:30:41;;;;;;;30.75;21.95;;;4.70;76.80;;;;;;5076044;28;20509;-75
2023/04/09 04:33:07;;;;;;;25.58;20.02;;;4.70;76.80;;;;;;5074683;28;20052;-75
2023/04/09 04:35:33;;;;;;;25.58;19.63;;;4.60;77.30;;;;;;5075948;28;20068;-75
2023/04/09 04:37:58;;;;;;;30.17;22.33;;;4.50;77.40;;;;;;5075936;28;20387;-76
2023/04/09 04:40:24;;;;;;;28.95;20.73;;;4.60;77.60;;;;;;5075852;28;20024;-75
2023/04/09 04:42:49;;;;;;;30.60;21.52;;;4.60;77.60;;;;;;5075751;28;20079;-76
2023/04/09 04:45:15;;;;;;;29.60;20.95;;;4.60;77.80;;;;;;5075432;28;20037;-75
2023/04/09 04:47:40;;;;;;;28.92;20.70;;;4.60;77.90;;;;;;5075844;28;20024;-74
2023/04/09 04:50:07;;;;;;;29.02;20.25;;;4.60;78.00;;;;;;5074244;28;20035;-75
2023/04/09 04:52:32;;;;;;;32.60;22.85;;;4.60;77.90;;;;;;5075244;28;20556;-75
2023/04/09 04:54:58;;;;;;;30.00;21.15;;;4.50;77.80;;;;;;5075480;28;20107;-75
2023/04/09 04:57:23;;;;;;;26.67;20.67;;;4.50;78.20;;;;;;5075345;28;20052;-75
2023/04/09 04:59:49;;;;;;;28.20;20.98;;;4.50;78.30;;;;;;5075526;28;20024;-75
2023/04/09 05:02:14;;;;;;;29.38;20.42;;;4.50;78.20;;;;;;5075408;28;20403;-75
2023/04/09 05:04:40;;;;;;;28.60;21.38;;;4.50;77.70;;;;;;5075350;28;20048;-77
2023/04/09 05:07:06;;;;;;;27.10;19.83;;;4.50;77.60;;;;;;5074431;28;20095;-78
2023/04/09 05:09:31;;;;;;;28.33;20.63;;;4.50;77.90;;;;;;5075395;28;20027;-79
2023/04/09 05:11:57;;;;;;;31.48;22.23;;;4.40;77.70;;;;;;5075401;28;20062;-79
2023/04/09 05:14:23;;;;;;;28.63;20.73;;;4.40;77.30;;;;;;5075333;28;20032;-78
2023/04/09 05:16:49;;;;;;;27.98;20.38;;;4.40;77.40;;;;;;5075118;28;20051;-78
2023/04/09 05:19:15;;;;;;;27.98;20.52;;;4.40;77.80;;;;;;5075677;28;20016;-78
2023/04/09 05:21:40;;;;;;;28.77;22.25;;;4.50;77.70;;;;;;5075255;28;20396;-78
2023/04/09 05:24:06;;;;;;;28.48;20.48;;;4.40;77.60;;;;;;5075280;28;20434;-79
2023/04/09 05:26:31;;;;;;;31.38;23.13;;;4.50;77.60;;;;;;5075187;28;20472;-78
2023/04/09 05:28:57;;;;;;;27.08;20.52;;;4.50;77.80;;;;;;5075084;28;20527;-78
2023/04/09 05:31:22;;;;;;;28.63;21.63;;;4.50;78.00;;;;;;5074885;28;20109;-76
2023/04/09 05:33:48;;;;;;;27.67;20.63;;;4.60;77.80;;;;;;5074936;28;20028;-74
2023/04/09 05:36:15;;;;;;;27.67;20.73;;;4.70;77.80;;;;;;5074543;28;20418;-73
2023/04/09 05:38:41;;;;;;;27.88;20.25;;;4.80;77.50;;;;;;5075015;28;20032;-73
2023/04/09 05:41:07;;;;;;;27.73;20.42;;;4.90;78.20;;;;;;5074912;28;20033;-74
2023/04/09 05:43:32;;;;;;;27.65;20.65;;;4.90;77.00;;;;;;5074756;28;20392;-75
2023/04/09 05:45:58;;;;;;;26.30;19.73;;;5.00;76.60;;;;;;5074560;28;20049;-74
2023/04/09 05:48:23;;;;;;;27.63;20.13;;;5.00;76.50;;;;;;5074708;28;20095;-77
2023/04/09 05:50:51;;;;;;;27.48;19.85;;;5.10;76.50;;;;;;5074621;28;20473;-76
2023/04/09 05:53:17;;;;;;;26.42;19.95;;;5.20;76.40;;;;;;5074423;28;20082;-76
2023/04/09 05:55:43;;;;;;;28.13;21.20;;;5.30;76.10;;;;;;5074515;28;20082;-78
2023/04/09 05:58:09;;;;;;;33.45;23.98;;;5.40;75.90;;;;;;5073234;28;20024;-77
2023/04/09 06:00:34;;;;;;;30.73;22.42;;;5.50;75.40;;;;;;5074517;28;20029;-77
2023/04/09 06:03:00;;;;;;;29.70;23.27;;;5.50;74.90;;;;;;5074151;28;20550;-77
2023/04/09 06:05:25;;;;;;;29.83;22.98;;;5.60;75.80;;;;;;5074063;28;20072;-75
2023/04/09 06:07:51;;;;;;;30.92;23.20;;;5.60;75.00;;;;;;5074251;28;20031;-76
2023/04/09 06:10:16;;;;;;;30.58;23.50;;;5.60;74.90;;;;;;5066479;28;20017;-76
2023/04/09 06:12:42;;;;;;;30.40;22.90;;;5.60;75.10;;;;;;5054187;28;20037;-75
2023/04/09 06:15:08;;;;;;;27.60;21.88;;;5.60;75.20;;;;;;5054325;28;20082;-78
2023/04/09 06:17:33;;;;;;;28.60;22.75;;;5.70;75.30;;;;;;5053913;28;20044;-75
2023/04/09 06:19:59;;;;;;;29.55;22.65;;;5.70;75.10;;;;;;5053473;28;20029;-75
2023/04/09 06:22:24;;;;;;;29.42;22.08;;;5.80;74.80;;;;;;5053665;28;20024;-75
2023/04/09 06:24:50;;;;;;;29.45;22.77;;;5.90;74.70;;;;;;5053778;28;20032;-75
2023/04/09 06:27:17;;;;;;;30.27;22.70;;;6.00;74.20;;;;;;5053966;28;20039;-75
2023/04/09 06:29:43;;;;;;;28.92;22.45;;;6.10;74.00;;;;;;5053600;28;20021;-75
2023/04/09 06:32:09;;;;;;;25.88;20.73;;;6.20;73.50;;;;;;5053767;28;20025;-75
2023/04/09 06:34:34;;;;;;;26.42;20.48;;;6.40;73.90;;;;;;5053465;28;20107;-74
2023/04/09 06:37:00;;;;;;;26.20;20.77;;;6.60;72.80;;;;;;5053509;28;20393;-75
2023/04/09 06:39:26;;;;;;;26.75;21.30;;;6.70;72.40;;;;;;5053286;28;20098;-75
2023/04/09 06:41:52;;;;;;;27.83;21.90;;;6.90;71.70;;;;;;5053652;28;20458;-76
2023/04/09 06:44:18;;;;;;;28.50;21.65;;;7.00;70.50;;;;;;5051903;28;20057;-74
2023/04/09 06:46:44;;;;;;;27.27;21.08;;;7.10;68.80;;;;;;5053532;28;20108;-76
2023/04/09 06:49:10;;;;;;;27.23;21.15;;;7.20;68.80;;;;;;5053095;28;20698;-76
2023/04/09 06:51:35;;;;;;;25.80;20.38;;;7.20;68.20;;;;;;5053278;28;20361;-75
2023/04/09 06:54:01;;;;;;;30.27;18.35;;;7.20;67.90;;;;;;5053447;28;20389;-73
2023/04/09 06:56:26;;;;;;;23.17;17.42;;;7.40;74.10;;;;;;5053453;28;20370;-73
2023/04/09 06:58:52;;;;;;;27.08;19.95;;;7.70;77.80;;;;;;5053126;28;20051;-73
2023/04/09 07:01:18;;;;;;;23.83;18.75;;;8.00;69.20;;;;;;5053344;28;20422;-74
2023/04/09 07:03:43;;;;;;;22.92;17.48;;;8.20;67.20;;;;;;5053226;28;20021;-73
2023/04/09 07:06:09;;;;;;;23.85;17.75;;;8.40;65.80;;;;;;5053362;28;20037;-75
2023/04/09 07:08:35;;;;;;;24.63;17.52;;;8.50;62.90;;;;;;5053269;28;20029;-75
2023/04/09 07:11:00;;;;;;;24.02;17.55;;;8.50;62.50;;;;;;5053280;28;20082;-75
2023/04/09 07:13:26;;;;;;;19.23;15.70;;;8.60;61.50;;;;;;5053044;28;20036;-75
2023/04/09 07:15:51;;;;;;;21.33;17.10;;;8.80;62.00;;;;;;5052865;28;20040;-76
2023/04/09 07:18:17;;;;;;;20.15;15.95;;;9.20;62.00;;;;;;5052899;28;20021;-75
2023/04/09 07:20:43;;;;;;;20.83;16.33;;;9.40;59.70;;;;;;5052868;28;20024;-76
2023/04/09 07:23:08;;;;;;;21.45;17.58;;;9.60;57.90;;;;;;5053137;28;20025;-76
2023/04/09 07:25:34;;;;;;;21.70;16.50;;;9.50;57.70;;;;;;5052940;28;20017;-75
2023/04/09 07:27:59;;;;;;;21.55;17.35;;;9.30;57.30;;;;;;5053324;28;20025;-76
2023/04/09 07:30:26;;;;;;;25.80;19.33;;;9.00;57.10;;;;;;5053219;28;20025;-77
2023/04/09 07:32:51;;;;;;;22.10;17.75;;;8.60;58.60;;;;;;5052084;28;20060;-78
2023/04/09 07:35:17;;;;;;;21.55;17.73;;;8.40;59.90;;;;;;5051927;28;20052;-77
2023/04/09 07:37:43;;;;;;;21.15;17.40;;;8.20;60.20;;;;;;5053122;28;20433;-78
2023/04/09 07:40:09;;;;;;;22.52;17.60;;;8.10;61.20;;;;;;5053248;28;20111;-76
2023/04/09 07:42:37;;;;;;;22.40;17.55;;;8.00;61.20;;;;;;5053708;28;20075;-77
2023/04/09 07:45:03;;;;;;;20.25;16.42;;;8.10;61.80;;;;;;5055171;28;20052;-75
2023/04/09 07:47:30;;;;;;;21.70;17.63;;;8.00;60.80;;;;;;5062558;28;20009;-77
2023/04/09 07:49:55;;;;;;;20.98;16.25;;;7.90;61.40;;;;;;5075607;28;20045;-76
2023/04/09 07:52:21;;;;;;;19.90;16.80;;;7.90;60.90;;;;;;5072518;28;20025;-75
2023/04/09 07:54:46;;;;;;;20.88;16.55;;;8.00;60.80;;;;;;5071445;28;20021;-74
2023/04/09 07:57:12;;;;;;;20.92;16.58;;;8.20;60.80;;;;;;5071798;28;20055;-75
2023/04/09 07:59:37;;;;;;;19.58;15.88;;;8.30;59.70;;;;;;5070368;28;20025;-76
2023/04/09 08:02:03;;;;;;;19.25;14.88;;;8.30;59.40;;;;;;5062541;28;20029;-76
2023/04/09 08:04:29;;;;;;;19.20;15.05;;;8.40;59.10;;;;;;5052863;28;20017;-75
2023/04/09 08:06:55;;;;;;;17.65;15.02;;;8.50;59.70;;;;;;5052386;28;20023;-75
2023/04/09 08:09:20;;;;;;;17.10;13.70;;;8.60;59.00;;;;;;5052477;28;20380;-74
2023/04/09 08:11:47;;;;;;;18.27;14.70;;;8.60;56.90;;;;;;5052604;28;20021;-75
2023/04/09 08:14:14;;;;;;;16.95;13.88;;;8.60;57.40;;;;;;5052620;28;20039;-75
2023/04/09 08:16:41;;;;;;;18.17;14.00;;;8.40;57.60;;;;;;5052427;28;20060;-75
2023/04/09 08:19:08;;;;;;;16.70;13.93;;;8.30;57.60;;;;;;5055855;28;20031;-78
2023/04/09 08:21:36;;;;;;;14.13;11.90;;;8.30;58.00;;;;;;5071336;28;20494;-77
2023/04/09 08:24:03;;;;;;;13.60;11.10;;;8.40;57.20;;;;;;5071303;28;20038;-74
2023/04/09 08:26:29;;;;;;;11.15;9.50;;;8.70;57.40;;;;;;5069880;28;20028;-75
2023/04/09 08:28:56;;;;;;;11.18;9.18;;;9.00;55.70;;;;;;5071316;28;20048;-75
2023/04/09 08:31:21;;;;;;;12.45;9.65;;;9.20;52.90;;;;;;5068794;28;20025;-75
2023/04/09 08:33:47;;;;;;;11.75;9.85;;;9.50;52.90;;;;;;5072200;28;20043;-78
2023/04/09 08:36:12;;;;;;;10.57;9.30;;;9.70;52.20;;;;;;5072030;28;20040;-77
2023/04/09 08:38:39;;;;;;;11.88;9.18;;;9.90;51.40;;;;;;5072248;28;20380;-78
2023/04/09 08:41:05;;;;;;;11.50;8.70;;;10.00;51.00;;;;;;5071970;28;20070;-77
2023/04/09 08:43:32;;;;;;;11.30;8.07;;;10.00;51.00;;;;;;5073290;28;20052;-76
2023/04/09 08:46:01;;;;;;;11.60;8.90;;;10.00;50.60;;;;;;5078508;28;20412;-76
2023/04/09 08:48:27;;;;;;;15.85;11.75;;;10.10;50.30;;;;;;5075641;28;20407;-75
2023/04/09 08:50:52;;;;;;;10.50;8.75;;;10.20;49.90;;;;;;5075403;28;20025;-78
2023/04/09 08:53:21;;;;;;;10.48;8.52;;;10.30;50.10;;;;;;5075406;28;20029;-78
2023/04/09 08:55:46;;;;;;;8.95;7.93;;;10.30;49.60;;;;;;5075355;28;20041;-78
2023/04/09 08:58:12;;;;;;;9.00;7.88;;;10.30;49.10;;;;;;5075404;28;20029;-78
2023/04/09 09:00:39;;;;;;;8.10;7.28;;;10.30;49.00;;;;;;5075507;28;21088;-77
2023/04/09 09:03:14;;;;;;;8.82;7.07;;;10.40;48.70;;;;;;5075308;28;20043;-78
2023/04/09 09:05:44;;;;;;;9.55;8.15;;;10.40;48.40;;;;;;5075504;28;20024;-78
2023/04/09 09:08:30;;;;;;;10.52;7.80;;;10.50;48.30;;;;;;5075004;28;20035;-76
2023/04/09 09:10:56;;;;;;;8.75;7.85;;;10.60;48.40;;;;;;5075129;28;20040;-76
2023/04/09 09:13:23;;;;;;;8.93;7.35;;;10.70;47.60;;;;;;5075277;28;20025;-76
2023/04/09 09:15:55;;;;;;;8.73;7.28;;;10.90;46.30;;;;;;5075004;28;20032;-76
2023/04/09 09:18:42;;;;;;;9.38;7.18;;;11.10;46.10;;;;;;5075274;28;20484;-76
2023/04/09 09:21:16;;;;;;;8.13;7.13;;;11.20;45.10;;;;;;5075431;28;20052;-77
2023/04/09 09:23:42;;;;;;;8.15;6.70;;;11.40;44.90;;;;;;5075140;28;20024;-77
2023/04/09 09:26:23;;;;;;;7.43;5.85;;;11.40;42.90;;;;;;5075122;28;20021;-78
2023/04/09 09:28:49;;;;;;;8.60;6.78;;;11.40;43.30;;;;;;5073911;28;20028;-78
2023/04/09 09:31:17;;;;;;;5.93;4.90;;;11.60;42.90;;;;;;5074937;28;20021;-78
2023/04/09 09:33:42;;;;;;;6.13;5.45;;;11.70;40.60;;;;;;5074667;28;20035;-78
2023/04/09 09:36:08;;;;;;;7.10;5.88;;;11.90;41.50;;;;;;5075026;28;20036;-77
2023/04/09 09:38:53;;;;;;;7.78;6.90;;;11.70;41.30;;;;;;5074922;28;20060;-78
2023/04/09 09:41:19;;;;;;;7.23;6.33;;;11.60;43.30;;;;;;5074200;28;20020;-78
2023/04/09 09:43:45;;;;;;;7.53;6.05;;;11.60;43.50;;;;;;5073589;28;20059;-78
2023/04/09 09:46:11;;;;;;;7.82;6.50;;;11.60;43.80;;;;;;5074552;28;20496;-76
2023/04/09 09:48:38;;;;;;;8.68;7.25;;;11.50;43.60;;;;;;5074728;28;20358;-76
2023/04/09 09:51:08;;;;;;;9.65;8.57;;;11.20;43.00;;;;;;5074685;28;20032;-76
2023/04/09 09:53:36;;;;;;;8.20;6.72;;;10.70;45.20;;;;;;5074716;28;20036;-76
2023/04/09 09:56:04;;;;;;;7.95;6.90;;;10.50;47.40;;;;;;5072931;28;20040;-76
2023/04/09 09:59:02;;;;;;;9.48;8.35;;;10.50;47.80;;;;;;5082783;28;20017;-77
2023/04/09 10:01:28;;;;;;;9.85;7.85;;;10.50;48.30;;;;;;5074086;28;20024;-76
2023/04/09 10:03:58;;;;;;;9.02;7.97;;;10.40;48.40;;;;;;5075229;28;20031;-76
2023/04/09 10:06:25;;;;;;;10.50;8.75;;;10.20;47.30;;;;;;5074449;28;20082;-76
2023/04/09 10:08:51;;;;;;;10.23;8.32;;;10.00;47.80;;;;;;5074189;28;20108;-77
2023/04/09 10:11:19;;;;;;;9.02;8.07;;;10.00;48.70;;;;;;5074137;28;20028;-76
2023/04/09 10:13:59;;;;;;;9.65;8.00;;;10.00;48.20;;;;;;5074182;28;20104;-79
2023/04/09 10:16:26;;;;;;;12.13;8.30;;;9.90;48.00;;;;;;5074104;28;20135;-76
2023/04/09 10:18:56;;;;;;;9.52;7.78;;;9.90;47.60;;;;;;5074001;28;20059;-75
2023/04/09 10:21:30;;;;;;;9.20;7.55;;;9.80;46.70;;;;;;5072839;28;20029;-78
2023/04/09 10:23:57;;;;;;;8.95;7.53;;;9.90;47.30;;;;;;5073063;28;20056;-82
2023/04/09 10:26:29;;;;;;;8.05;6.72;;;10.00;47.50;;;;;;5074518;28;20222;-83
2023/04/09 10:29:08;;;;;;;8.70;6.75;;;10.20;47.90;;;;;;5073479;28;20031;-77
2023/04/09 10:31:53;;;;;;;10.63;8.60;;;10.40;47.50;;;;;;5073242;28;20480;-83
2023/04/09 10:34:27;;;;;;;11.23;9.10;;;10.40;47.00;;;;;;5072962;28;20074;-77
2023/04/09 10:36:56;;;;;;;9.70;8.60;;;10.40;48.10;;;;;;5072293;28;20036;-80
2023/04/09 10:39:26;;;;;;;12.38;9.75;;;10.30;48.40;;;;;;5072900;28;20034;-82
2023/04/09 10:41:53;;;;;;;11.02;8.93;;;10.30;49.20;;;;;;5072786;28;20055;-81
2023/04/09 10:44:20;;;;;;;10.27;8.52;;;10.20;49.40;;;;;;5072369;28;20071;-86
2023/04/09 10:46:46;;;;;;;13.27;10.13;;;10.20;49.60;;;;;;5072946;28;20056;-83
2023/04/09 10:49:16;;;;;;;11.75;9.55;;;10.20;49.40;;;;;;5072969;28;20027;-87
2023/04/09 10:52:06;;;;;;;10.25;9.02;;;10.30;49.30;;;;;;5072420;28;20366;-82
2023/04/09 10:54:36;;;;;;;12.38;9.50;;;10.30;49.20;;;;;;5073272;28;20082;-83
2023/04/09 10:57:07;;;;;;;13.57;10.60;;;10.40;49.60;;;;;;5073158;28;20556;-80
2023/04/09 10:59:44;;;;;;;12.45;9.82;;;10.50;49.40;;;;;;5072288;28;20035;-80
2023/04/09 11:02:38;;;;;;;11.57;9.05;;;10.50;49.20;;;;;;5072745;28;20031;-87
2023/04/09 11:05:32;;;;;;;11.50;9.10;;;10.60;49.40;;;;;;5073997;28;20055;-88
2023/04/09 11:08:11;;;;;;;10.25;8.75;;;10.70;48.30;;;;;;5073372;28;20029;-87
2023/04/09 11:10:38;;;;;;;11.20;9.13;;;10.80;48.30;;;;;;5075070;28;20074;-87
2023/04/09 11:13:12;;;;;;;10.88;8.75;;;10.90;48.80;;;;;;5075304;28;20455;-86
2023/04/09 11:15:38;;;;;;;10.90;8.52;;;10.90;48.10;;;;;;5054812;28;20043;-84
2023/04/09 11:18:08;;;;;;;9.00;7.82;;;11.10;49.20;;;;;;5036332;28;20033;-82
2023/04/09 11:20:57;;;;;;;19.70;8.10;;;11.30;50.10;;;;;;5050948;28;20120;-84
2023/04/09 11:23:23;;;;;;;8.13;6.80;;;11.60;47.70;;;;;;5052019;28;20026;-77
2023/04/09 11:25:50;;;;;;;10.35;7.05;;;11.90;47.50;;;;;;5051973;28;20043;-81
2023/04/09 11:28:16;;;;;;;8.48;6.50;;;12.20;46.90;;;;;;5035464;28;20039;-84
2023/04/09 11:30:45;;;;;;;8.38;6.35;;;12.40;44.90;;;;;;5035599;28;20063;-83
2023/04/09 11:33:12;;;;;;;9.68;7.32;;;12.60;44.10;;;;;;5051698;28;20021;-83
2023/04/09 11:35:38;;;;;;;9.73;6.55;;;12.80;43.90;;;;;;5053104;28;20044;-79
2023/04/09 11:38:08;;;;;;;7.80;6.00;;;13.20;42.60;;;;;;5051273;28;20021;-77
2023/04/09 11:40:42;;;;;;;7.63;6.25;;;13.60;41.60;;;;;;5051282;28;20025;-76
2023/04/09 11:43:08;;;;;;;7.32;6.03;;;14.10;40.50;;;;;;5051684;28;20064;-79
2023/04/09 11:45:34;;;;;;;6.95;5.93;;;14.40;39.30;;;;;;5052816;28;20044;-81
2023/04/09 11:48:01;;;;;;;8.32;5.82;;;14.60;38.00;;;;;;5051804;28;20079;-78
2023/04/09 11:50:27;;;;;;;7.88;6.00;;;15.10;38.90;;;;;;5051759;28;20025;-82
2023/04/09 11:52:53;;;;;;;7.15;6.13;;;15.40;38.50;;;;;;5051520;28;20032;-76
2023/04/09 11:55:26;;;;;;;6.97;5.43;;;15.70;37.90;;;;;;5051578;28;20033;-78
2023/04/09 11:57:55;;;;;;;9.20;6.57;;;16.00;36.30;;;;;;5051435;28;20017;-77
2023/04/09 12:00:23;;;;;;;6.65;5.70;;;16.20;35.20;;;;;;5034688;28;20029;-76
2023/04/09 12:02:50;;;;;;;10.15;6.80;;;16.20;34.00;;;;;;5051385;28;20480;-78
2023/04/09 12:05:29;;;;;;;7.63;5.90;;;15.70;33.10;;;;;;5051505;28;20416;-76
2023/04/09 12:08:05;;;;;;;7.10;4.72;;;15.60;34.50;;;;;;5051002;28;20029;-78
2023/04/09 12:10:37;;;;;;;10.40;6.88;;;15.50;34.90;;;;;;5052721;28;20029;-76
2023/04/09 12:13:05;;;;;;;6.55;5.43;;;15.80;34.70;;;;;;5050909;28;20111;-77
2023/04/09 12:15:35;;;;;;;7.38;5.05;;;16.10;32.90;;;;;;5051292;28;20120;-76
2023/04/09 12:18:02;;;;;;;5.80;5.18;;;16.40;29.20;;;;;;5051063;28;20021;-76
2023/04/09 12:20:38;;;;;;;6.57;5.60;;;16.30;28.90;;;;;;5054246;28;20033;-76
2023/04/09 12:23:05;;;;;;;7.25;5.80;;;16.20;30.10;;;;;;5055130;28;20060;-76
2023/04/09 12:25:39;;;;;;;7.43;6.35;;;16.50;30.50;;;;;;5038124;28;20477;-76
2023/04/09 12:28:10;;;;;;;6.45;5.80;;;16.30;28.30;;;;;;5054907;28;20025;-76
2023/04/09 12:30:37;;;;;;;6.70;5.75;;;15.80;29.40;;;;;;5054441;28;20483;-76
2023/04/09 12:33:03;;;;;;;7.57;5.93;;;15.40;30.20;;;;;;5054715;28;20112;-76
2023/04/09 12:35:29;;;;;;;7.32;6.22;;;15.80;30.60;;;;;;5055153;28;20124;-75
2023/04/09 12:37:55;;;;;;;7.80;6.53;;;16.10;30.60;;;;;;5054794;28;20025;-76
2023/04/09 12:40:21;;;;;;;5.70;5.10;;;15.80;29.50;;;;;;5054323;28;20040;-75
2023/04/09 12:42:46;;;;;;;6.22;4.85;;;16.00;30.00;;;;;;5054566;28;20025;-78